Time,TemperatureF,DewpointF,PressureIn,WindDirection,WindDirectionDegrees,WindSpeedMPH,WindSpeedGustMPH,Humidity,HourlyPrecipIn,Conditions,Clouds,dailyrainin,SoftwareType,DateUTC
2013-02-20 00:00:00,34.9,31.7,30.29,NW,314,0.0,0.0,88,0.00,,,0.00,WeatherCatV1.02B3,2013-02-20 06:00:00,
2013-02-20 00:05:00,34.9,31.4,30.29,NW,314,0.0,0.0,87,0.00,,,0.00,WeatherCatV1.02B3,2013-02-20 06:05:00,
2013-02-20 00:10:00,34.9,31.4,30.29,NW,314,0.0,0.0,87,0.00,,,0.00,WeatherCatV1.02B3,2013-02-20 06:10:00,
2013-02-20 00:15:00,36.5,32.1,30.30,North,5,1.0,3.0,84,0.00,,,0.00,WeatherCatV1.02B3,2013-02-20 06:15:00,
2013-02-20 00:20:00,37.1,32.1,30.30,North,5,0.0,0.0,82,0.00,,,0.00,WeatherCatV1.02B3,2013-02-20 06:20:00,
2013-02-20 00:25:00,37.4,32.1,30.30,North,5,0.0,2.0,81,0.00,,,0.00,WeatherCatV1.02B3,2013-02-20 06:25:00,
2013-02-20 00:30:00,37.4,32.1,30.31,North,5,0.0,0.0,81,0.00,,,0.00,WeatherCatV1.02B3,2013-02-20 06:30:00,
2013-02-20 00:35:00,37.2,31.9,30.31,North,5,0.0,0.0,81,0.00,,,0.00,WeatherCatV1.02B3,2013-02-20 06:35:00,
2013-02-20 00:40:00,37.0,32.0,30.31,North,5,0.0,0.0,82,0.00,,,0.00,WeatherCatV1.02B3,2013-02-20 06:40:00,
2013-02-20 00:45:00,36.8,32.1,30.31,North,5,0.0,0.0,83,0.00,,,0.00,WeatherCatV1.02B3,2013-02-20 06:45:00,
2013-02-20 00:50:00,36.5,32.1,30.31,North,5,0.0,0.0,84,0.00,,,0.00,WeatherCatV1.02B3,2013-02-20 06:50:00,
2013-02-20 00:52:00,36.4,32.0,30.31,North,5,0.0,0.0,84,0.00,,,0.00,WeatherCatV1.02B3,2013-02-20 06:52:00,
2013-02-20 00:57:00,36.2,31.8,30.31,North,5,1.0,2.0,84,0.00,,,0.00,WeatherCatV1.02B3,2013-02-20 06:57:00,
2013-02-20 01:02:00,36.5,31.8,30.31,North,5,3.0,3.0,83,0.00,,,0.00,WeatherCatV1.02B3,2013-02-20 07:02:00,
2013-02-20 01:07:00,37.0,32.0,30.31,North,5,3.0,3.0,82,0.00,,,0.00,WeatherCatV1.02B3,2013-02-20 07:07:00,
2013-02-20 01:12:00,37.5,31.6,30.31,NNE,15,4.0,4.0,79,0.00,,,0.00,WeatherCatV1.02B3,2013-02-20 07:12:00,
2013-02-20 01:17:00,38.0,31.4,30.30,NNE,24,4.0,5.0,77,0.00,,,0.00,WeatherCatV1.02B3,2013-02-20 07:17:00,
2013-02-20 01:22:00,38.4,31.2,30.30,NE,36,4.0,6.0,75,0.00,,,0.00,WeatherCatV1.02B3,2013-02-20 07:22:00,
2013-02-20 01:27:00,39.1,31.5,30.29,NNE,31,5.0,7.0,74,0.00,,,0.00,WeatherCatV1.02B3,2013-02-20 07:27:00,
2013-02-20 01:32:00,39.2,31.6,30.29,NNE,26,4.0,7.0,74,0.00,,,0.00,WeatherCatV1.02B3,2013-02-20 07:32:00,
2013-02-20 01:37:00,39.2,31.6,30.29,NNE,31,4.0,5.0,74,0.00,,,0.00,WeatherCatV1.02B3,2013-02-20 07:37:00,
2013-02-20 01:42:00,39.4,31.1,30.29,NNE,28,7.0,7.0,72,0.00,,,0.00,WeatherCatV1.02B3,2013-02-20 07:42:00,
2013-02-20 01:47:00,39.5,31.2,30.29,NNE,17,5.0,6.0,72,0.00,,,0.00,WeatherCatV1.02B3,2013-02-20 07:47:00,
2013-02-20 01:52:00,39.7,30.7,30.30,NNE,23,5.0,7.0,70,0.00,,,0.00,WeatherCatV1.02B3,2013-02-20 07:52:00,
2013-02-20 01:57:00,39.9,30.6,30.30,NNE,22,5.0,7.0,69,0.00,,,0.00,WeatherCatV1.02B3,2013-02-20 07:57:00,
2013-02-20 02:05:00,40.0,30.7,30.30,NNE,26,4.0,6.0,69,0.00,,,0.00,WeatherCatV1.02B3,2013-02-20 08:05:00,
2013-02-20 02:10:00,39.9,30.6,30.30,NNE,26,5.0,6.0,69,0.00,,,0.00,WeatherCatV1.02B3,2013-02-20 08:10:00,
2013-02-20 02:15:00,39.8,30.1,30.30,NNE,26,5.0,6.0,68,0.00,,,0.00,WeatherCatV1.02B3,2013-02-20 08:15:00,
2013-02-20 02:20:00,39.8,29.8,30.30,NNE,28,5.0,7.0,67,0.00,,,0.00,WeatherCatV1.02B3,2013-02-20 08:20:00,
2013-02-20 02:25:00,39.8,29.4,30.30,NNE,31,5.0,7.0,66,0.00,,,0.00,WeatherCatV1.02B3,2013-02-20 08:25:00,
2013-02-20 02:30:00,40.0,29.2,30.31,NNE,28,6.0,6.0,65,0.00,,,0.00,WeatherCatV1.02B3,2013-02-20 08:30:00,
2013-02-20 02:35:00,39.8,29.4,30.31,NNE,15,6.0,7.0,66,0.00,,,0.00,WeatherCatV1.02B3,2013-02-20 08:35:00,
2013-02-20 02:40:00,39.7,29.7,30.31,NNE,19,5.0,7.0,67,0.00,,,0.00,WeatherCatV1.02B3,2013-02-20 08:40:00,
2013-02-20 02:45:00,39.6,29.6,30.31,NNE,30,5.0,6.0,67,0.00,,,0.00,WeatherCatV1.02B3,2013-02-20 08:45:00,
2013-02-20 02:50:00,39.7,28.5,30.30,NE,39,6.0,7.0,64,0.00,,,0.00,WeatherCatV1.02B3,2013-02-20 08:50:00,
2013-02-20 02:55:00,39.7,28.2,30.30,NNE,26,6.0,8.0,63,0.00,,,0.00,WeatherCatV1.02B3,2013-02-20 08:55:00,
2013-02-20 03:00:00,39.7,28.2,30.30,NE,36,6.0,9.0,63,0.00,,,0.00,WeatherCatV1.02B3,2013-02-20 09:00:00,
2013-02-20 03:05:00,39.6,27.7,30.31,NE,41,5.0,8.0,62,0.00,,,0.00,WeatherCatV1.02B3,2013-02-20 09:05:00,
2013-02-20 03:10:00,39.5,28.3,30.31,NNE,26,7.0,7.0,64,0.00,,,0.00,WeatherCatV1.02B3,2013-02-20 09:10:00,
2013-02-20 03:15:00,39.4,27.5,30.30,NE,34,4.0,7.0,62,0.00,,,0.00,WeatherCatV1.02B3,2013-02-20 09:15:00,
2013-02-20 03:20:00,39.3,27.0,30.30,NNE,17,5.0,8.0,61,0.00,,,0.00,WeatherCatV1.02B3,2013-02-20 09:20:00,
2013-02-20 03:25:00,39.4,27.1,30.30,NNE,28,4.0,6.0,61,0.00,,,0.00,WeatherCatV1.02B3,2013-02-20 09:25:00,
2013-02-20 03:30:00,39.2,27.7,30.30,NE,38,4.0,6.0,63,0.00,,,0.00,WeatherCatV1.02B3,2013-02-20 09:30:00,
2013-02-20 03:35:00,39.0,27.1,30.31,NE,38,2.0,6.0,62,0.00,,,0.00,WeatherCatV1.02B3,2013-02-20 09:35:00,
2013-02-20 03:40:00,38.9,27.4,30.30,NE,35,3.0,5.0,63,0.00,,,0.00,WeatherCatV1.02B3,2013-02-20 09:40:00,
2013-02-20 03:45:00,38.6,27.5,30.30,NE,36,3.0,7.0,64,0.00,,,0.00,WeatherCatV1.02B3,2013-02-20 09:45:00,
2013-02-20 03:50:00,38.4,27.3,30.30,NNE,31,3.0,6.0,64,0.00,,,0.00,WeatherCatV1.02B3,2013-02-20 09:50:00,
2013-02-20 03:55:00,38.2,27.5,30.30,NNE,26,4.0,5.0,65,0.00,,,0.00,WeatherCatV1.02B3,2013-02-20 09:55:00,
2013-02-20 04:00:00,37.9,27.6,30.30,NE,42,3.0,4.0,66,0.00,,,0.00,WeatherCatV1.02B3,2013-02-20 10:00:00,
2013-02-20 04:05:00,37.8,27.5,30.30,NNE,32,3.0,4.0,66,0.00,,,0.00,WeatherCatV1.02B3,2013-02-20 10:05:00,
2013-02-20 04:10:00,37.6,26.9,30.30,NE,44,3.0,6.0,65,0.00,,,0.00,WeatherCatV1.02B3,2013-02-20 10:10:00,
2013-02-20 04:15:00,37.5,26.8,30.31,NE,37,2.0,5.0,65,0.00,,,0.00,WeatherCatV1.02B3,2013-02-20 10:15:00,
2013-02-20 04:20:00,37.4,26.4,30.30,NE,40,3.0,6.0,64,0.00,,,0.00,WeatherCatV1.02B3,2013-02-20 10:20:00,
2013-02-20 04:25:00,37.4,26.4,30.31,NNE,32,5.0,6.0,64,0.00,,,0.00,WeatherCatV1.02B3,2013-02-20 10:25:00,
2013-02-20 04:30:00,37.2,26.2,30.31,NNE,23,3.0,6.0,64,0.00,,,0.00,WeatherCatV1.02B3,2013-02-20 10:30:00,
2013-02-20 04:35:00,37.1,26.8,30.31,NNE,19,4.0,6.0,66,0.00,,,0.00,WeatherCatV1.02B3,2013-02-20 10:35:00,
2013-02-20 04:40:00,36.9,26.6,30.30,NNE,32,5.0,6.0,66,0.00,,,0.00,WeatherCatV1.02B3,2013-02-20 10:40:00,
2013-02-20 04:45:00,37.0,26.3,30.30,NE,38,5.0,7.0,65,0.00,,,0.00,WeatherCatV1.02B3,2013-02-20 10:45:00,
2013-02-20 04:50:00,37.1,25.7,30.30,NNE,26,5.0,8.0,63,0.00,,,0.00,WeatherCatV1.02B3,2013-02-20 10:50:00,
2013-02-20 04:55:00,37.1,26.8,30.31,NNE,22,4.0,7.0,66,0.00,,,0.00,WeatherCatV1.02B3,2013-02-20 10:55:00,
2013-02-20 05:00:00,37.0,26.7,30.31,NNE,32,4.0,7.0,66,0.00,,,0.00,WeatherCatV1.02B3,2013-02-20 11:00:00,
2013-02-20 05:05:00,37.0,26.7,30.31,NNE,30,6.0,7.0,66,0.00,,,0.00,WeatherCatV1.02B3,2013-02-20 11:05:00,
2013-02-20 05:10:00,37.0,27.1,30.31,NNE,24,5.0,5.0,67,0.00,,,0.00,WeatherCatV1.02B3,2013-02-20 11:10:00,
2013-02-20 05:15:00,36.9,26.6,30.31,NNE,28,5.0,7.0,66,0.00,,,0.00,WeatherCatV1.02B3,2013-02-20 11:15:00,
2013-02-20 05:20:00,36.9,26.6,30.31,NNE,26,4.0,6.0,66,0.00,,,0.00,WeatherCatV1.02B3,2013-02-20 11:20:00,
2013-02-20 05:25:00,36.8,27.2,30.31,NNE,33,4.0,6.0,68,0.00,,,0.00,WeatherCatV1.02B3,2013-02-20 11:25:00,
2013-02-20 05:30:00,36.7,26.4,30.30,NE,36,4.0,6.0,66,0.00,,,0.00,WeatherCatV1.02B3,2013-02-20 11:30:00,
2013-02-20 05:35:00,36.7,26.1,30.29,NE,45,7.0,8.0,65,0.00,,,0.00,WeatherCatV1.02B3,2013-02-20 11:35:00,
2013-02-20 05:40:00,36.7,26.1,30.29,NE,45,6.0,9.0,65,0.00,,,0.00,WeatherCatV1.02B3,2013-02-20 11:40:00,
2013-02-20 05:45:00,36.6,26.0,30.29,NE,40,4.0,8.0,65,0.00,,,0.00,WeatherCatV1.02B3,2013-02-20 11:45:00,
2013-02-20 05:50:00,36.4,26.5,30.30,NNE,29,6.0,8.0,67,0.00,,,0.00,WeatherCatV1.02B3,2013-02-20 11:50:00,
2013-02-20 05:55:00,36.4,26.1,30.30,NNE,30,5.0,8.0,66,0.00,,,0.00,WeatherCatV1.02B3,2013-02-20 11:55:00,
2013-02-20 06:00:00,36.4,25.8,30.31,NE,40,5.0,7.0,65,0.00,,,0.00,WeatherCatV1.02B3,2013-02-20 12:00:00,
2013-02-20 06:05:00,36.4,26.1,30.31,NNE,33,4.0,6.0,66,0.00,,,0.00,WeatherCatV1.02B3,2013-02-20 12:05:00,
2013-02-20 06:10:00,36.4,26.1,30.31,NE,36,4.0,6.0,66,0.00,,,0.00,WeatherCatV1.02B3,2013-02-20 12:10:00,
2013-02-20 06:15:00,36.3,26.0,30.32,NNE,28,4.0,6.0,66,0.00,,,0.00,WeatherCatV1.02B3,2013-02-20 12:15:00,
2013-02-20 06:20:00,36.3,26.4,30.32,NNE,31,7.0,7.0,67,0.00,,,0.00,WeatherCatV1.02B3,2013-02-20 12:20:00,
2013-02-20 06:25:00,36.3,26.0,30.32,NE,44,5.0,7.0,66,0.00,,,0.00,WeatherCatV1.02B3,2013-02-20 12:25:00,
2013-02-20 06:30:00,36.3,26.0,30.33,NE,53,7.0,8.0,66,0.00,,,0.00,WeatherCatV1.02B3,2013-02-20 12:30:00,
2013-02-20 06:35:00,36.2,26.0,30.33,NE,44,6.0,9.0,66,0.00,,,0.00,WeatherCatV1.02B3,2013-02-20 12:35:00,
2013-02-20 06:40:00,36.2,26.3,30.33,NE,35,5.0,7.0,67,0.00,,,0.00,WeatherCatV1.02B3,2013-02-20 12:40:00,
2013-02-20 06:45:00,36.2,26.3,30.34,NE,45,7.0,8.0,67,0.00,,,0.00,WeatherCatV1.02B3,2013-02-20 12:45:00,
2013-02-20 06:50:00,36.1,26.2,30.35,NE,50,5.0,6.0,67,0.00,,,0.00,WeatherCatV1.02B3,2013-02-20 12:50:00,
2013-02-20 06:55:00,36.1,25.1,30.34,NE,38,6.0,10.0,64,0.00,,,0.00,WeatherCatV1.02B3,2013-02-20 12:55:00,
2013-02-20 07:00:00,36.1,25.1,30.34,NE,54,9.0,10.0,64,0.00,,,0.00,WeatherCatV1.02B3,2013-02-20 13:00:00,
2013-02-20 07:05:00,36.0,25.0,30.34,NE,45,5.0,7.0,64,0.00,,,0.00,WeatherCatV1.02B3,2013-02-20 13:05:00,
2013-02-20 07:10:00,35.9,24.9,30.35,ENE,57,7.0,9.0,64,0.00,,,0.00,WeatherCatV1.02B3,2013-02-20 13:10:00,
2013-02-20 07:15:00,35.9,24.5,30.35,NE,48,6.0,9.0,63,0.00,,,0.00,WeatherCatV1.02B3,2013-02-20 13:15:00,
2013-02-20 07:20:00,35.8,24.1,30.35,NE,44,8.0,11.0,62,0.00,,,0.00,WeatherCatV1.02B3,2013-02-20 13:20:00,
2013-02-20 07:25:00,35.8,23.7,30.35,NE,49,12.0,12.0,61,0.00,,,0.00,WeatherCatV1.02B3,2013-02-20 13:25:00,
2013-02-20 07:30:00,35.7,23.2,30.35,NE,51,7.0,12.0,60,0.00,,,0.00,WeatherCatV1.02B3,2013-02-20 13:30:00,
2013-02-20 07:35:00,35.6,23.1,30.35,NE,42,4.0,12.0,60,0.00,,,0.00,WeatherCatV1.02B3,2013-02-20 13:35:00,
2013-02-20 07:40:00,35.6,23.5,30.35,NE,56,8.0,10.0,61,0.00,,,0.00,WeatherCatV1.02B3,2013-02-20 13:40:00,
2013-02-20 07:45:00,35.6,23.9,30.35,NE,51,7.0,12.0,62,0.00,,,0.00,WeatherCatV1.02B3,2013-02-20 13:45:00,
2013-02-20 07:50:00,35.6,24.3,30.35,NE,38,9.0,9.0,63,0.00,,,0.00,WeatherCatV1.02B3,2013-02-20 13:50:00,
2013-02-20 07:55:00,35.6,24.3,30.35,ENE,67,11.0,11.0,63,0.00,,,0.00,WeatherCatV1.02B3,2013-02-20 13:55:00,
2013-02-20 08:00:00,35.5,23.8,30.36,NNE,30,8.0,10.0,62,0.00,,,0.00,WeatherCatV1.02B3,2013-02-20 14:00:00,
2013-02-20 08:05:00,35.5,23.4,30.36,NE,55,8.0,10.0,61,0.00,,,0.00,WeatherCatV1.02B3,2013-02-20 14:05:00,
2013-02-20 08:10:00,35.6,24.6,30.37,NE,51,6.0,7.0,64,0.00,,,0.00,WeatherCatV1.02B3,2013-02-20 14:10:00,
2013-02-20 08:15:00,35.6,24.3,30.38,ENE,60,7.0,8.0,63,0.00,,,0.00,WeatherCatV1.02B3,2013-02-20 14:15:00,
2013-02-20 08:20:00,35.6,23.1,30.38,ENE,62,4.0,8.0,60,0.00,,,0.00,WeatherCatV1.02B3,2013-02-20 14:20:00,
2013-02-20 08:25:00,35.6,23.1,30.38,NE,53,8.0,9.0,60,0.00,,,0.00,WeatherCatV1.02B3,2013-02-20 14:25:00,
2013-02-20 08:30:00,35.6,22.7,30.38,NE,53,7.0,8.0,59,0.00,,,0.00,WeatherCatV1.02B3,2013-02-20 14:30:00,
2013-02-20 08:35:00,35.5,24.2,30.38,NE,46,4.0,6.0,63,0.00,,,0.00,WeatherCatV1.02B3,2013-02-20 14:35:00,
2013-02-20 08:40:00,35.5,23.8,30.38,NE,53,6.0,8.0,62,0.00,,,0.00,WeatherCatV1.02B3,2013-02-20 14:40:00,
2013-02-20 08:45:00,35.5,23.8,30.38,ENE,57,7.0,8.0,62,0.00,,,0.00,WeatherCatV1.02B3,2013-02-20 14:45:00,
2013-02-20 08:50:00,35.5,23.8,30.38,ENE,63,4.0,4.0,62,0.00,,,0.00,WeatherCatV1.02B3,2013-02-20 14:50:00,
2013-02-20 08:55:00,35.5,23.4,30.38,NE,49,5.0,7.0,61,0.00,,,0.00,WeatherCatV1.02B3,2013-02-20 14:55:00,
2013-02-20 09:00:00,35.5,23.4,30.38,NE,51,4.0,8.0,61,0.00,,,0.00,WeatherCatV1.02B3,2013-02-20 15:00:00,
2013-02-20 09:05:00,35.5,23.8,30.37,ENE,67,4.0,7.0,62,0.00,,,0.00,WeatherCatV1.02B3,2013-02-20 15:05:00,
2013-02-20 09:10:00,35.6,23.9,30.36,East,80,3.0,7.0,62,0.00,,,0.00,WeatherCatV1.02B3,2013-02-20 15:10:00,
2013-02-20 09:15:00,35.5,23.8,30.36,ENE,72,4.0,9.0,62,0.00,,,0.00,WeatherCatV1.02B3,2013-02-20 15:15:00,
2013-02-20 09:20:00,35.4,23.3,30.36,NE,55,4.0,7.0,61,0.00,,,0.00,WeatherCatV1.02B3,2013-02-20 15:20:00,
2013-02-20 09:25:00,35.4,23.7,30.35,NE,52,6.0,9.0,62,0.00,,,0.00,WeatherCatV1.02B3,2013-02-20 15:25:00,
2013-02-20 09:30:00,35.3,22.4,30.34,NE,49,9.0,11.0,59,0.00,,,0.00,WeatherCatV1.02B3,2013-02-20 15:30:00,
2013-02-20 09:35:00,35.2,23.1,30.33,NE,35,7.0,13.0,61,0.00,,,0.00,WeatherCatV1.02B3,2013-02-20 15:35:00,
2013-02-20 09:40:00,35.2,23.5,30.31,NE,50,14.0,15.0,62,0.00,,,0.00,WeatherCatV1.02B3,2013-02-20 15:40:00,
2013-02-20 09:45:00,35.1,23.0,30.29,NE,46,8.0,21.0,61,0.00,,,0.00,WeatherCatV1.02B3,2013-02-20 15:45:00,
2013-02-20 09:50:00,35.0,22.9,30.28,NE,48,15.0,18.0,61,0.00,,,0.00,WeatherCatV1.02B3,2013-02-20 15:50:00,
2013-02-20 09:55:00,34.9,23.2,30.30,NNE,27,15.0,20.0,62,0.00,,,0.00,WeatherCatV1.02B3,2013-02-20 15:55:00,
2013-02-20 10:00:00,34.9,23.2,30.31,NE,51,12.0,15.0,62,0.00,,,0.00,WeatherCatV1.02B3,2013-02-20 16:00:00,
2013-02-20 10:05:00,34.9,23.2,30.30,ENE,58,11.0,14.0,62,0.00,,,0.00,WeatherCatV1.02B3,2013-02-20 16:05:00,
2013-02-20 10:10:00,35.0,24.4,30.29,NE,44,9.0,14.0,65,0.00,,,0.00,WeatherCatV1.02B3,2013-02-20 16:10:00,
2013-02-20 10:15:00,35.1,24.9,30.29,NE,34,11.0,15.0,66,0.00,,,0.00,WeatherCatV1.02B3,2013-02-20 16:15:00,
2013-02-20 10:20:00,35.1,23.4,30.29,NNE,31,14.0,15.0,62,0.00,,,0.00,WeatherCatV1.02B3,2013-02-20 16:20:00,
2013-02-20 10:25:00,35.2,23.1,30.31,ENE,60,11.0,12.0,61,0.00,,,0.00,WeatherCatV1.02B3,2013-02-20 16:25:00,
2013-02-20 10:30:00,35.3,23.2,30.32,NE,44,8.0,11.0,61,0.00,,,0.00,WeatherCatV1.02B3,2013-02-20 16:30:00,
2013-02-20 10:35:00,35.5,23.4,30.32,NE,46,8.0,11.0,61,0.00,,,0.00,WeatherCatV1.02B3,2013-02-20 16:35:00,
2013-02-20 10:40:00,35.6,23.9,30.31,NE,51,12.0,13.0,62,0.00,,,0.00,WeatherCatV1.02B3,2013-02-20 16:40:00,
2013-02-20 10:45:00,35.7,22.8,30.32,NE,42,10.0,13.0,59,0.00,,,0.00,WeatherCatV1.02B3,2013-02-20 16:45:00,
2013-02-20 10:50:00,35.7,21.6,30.31,NE,56,10.0,14.0,56,0.00,,,0.00,WeatherCatV1.02B3,2013-02-20 16:50:00,
2013-02-20 10:55:00,35.5,21.4,30.33,ENE,64,10.0,14.0,56,0.00,,,0.00,WeatherCatV1.02B3,2013-02-20 16:55:00,
2013-02-20 11:00:00,35.5,21.8,30.32,NE,51,9.0,14.0,57,0.00,,,0.00,WeatherCatV1.02B3,2013-02-20 17:00:00,
2013-02-20 11:05:00,35.5,21.8,30.30,East,86,7.0,15.0,57,0.00,,,0.00,WeatherCatV1.02B3,2013-02-20 17:05:00,
2013-02-20 11:10:00,35.5,22.2,30.33,NE,53,2.0,9.0,58,0.00,,,0.00,WeatherCatV1.02B3,2013-02-20 17:10:00,
2013-02-20 11:15:00,35.7,23.2,30.33,NE,44,3.0,7.0,60,0.00,,,0.00,WeatherCatV1.02B3,2013-02-20 17:15:00,
2013-02-20 11:20:00,35.9,23.0,30.33,ENE,63,3.0,7.0,59,0.00,,,0.00,WeatherCatV1.02B3,2013-02-20 17:20:00,
2013-02-20 11:25:00,35.9,22.6,30.35,NNE,32,6.0,6.0,58,0.00,,,0.00,WeatherCatV1.02B3,2013-02-20 17:25:00,
2013-02-20 11:30:00,36.0,22.7,30.34,ENE,77,3.0,5.0,58,0.00,,,0.00,WeatherCatV1.02B3,2013-02-20 17:30:00,
2013-02-20 11:35:00,36.1,23.2,30.33,East,92,2.0,8.0,59,0.00,,,0.00,WeatherCatV1.02B3,2013-02-20 17:35:00,
2013-02-20 11:40:00,36.0,22.3,30.35,ESE,102,4.0,5.0,57,0.00,,,0.00,WeatherCatV1.02B3,2013-02-20 17:40:00,
2013-02-20 11:45:00,36.2,22.5,30.36,East,92,2.0,5.0,57,0.00,,,0.00,WeatherCatV1.02B3,2013-02-20 17:45:00,
2013-02-20 11:50:00,36.4,22.6,30.36,East,82,1.0,2.0,57,0.00,,,0.00,WeatherCatV1.02B3,2013-02-20 17:50:00,
2013-02-20 11:55:00,36.5,23.1,30.36,ENE,71,0.0,2.0,58,0.00,,,0.00,WeatherCatV1.02B3,2013-02-20 17:55:00,
2013-02-20 12:00:00,36.5,22.3,30.36,South,171,1.0,3.0,56,0.00,,,0.00,WeatherCatV1.02B3,2013-02-20 18:00:00,
2013-02-20 12:05:00,36.6,23.2,30.35,NNE,22,4.0,5.0,58,0.00,,,0.00,WeatherCatV1.02B3,2013-02-20 18:05:00,
2013-02-20 12:10:00,36.7,22.9,30.35,NE,41,1.0,3.0,57,0.00,,,0.00,WeatherCatV1.02B3,2013-02-20 18:10:00,
2013-02-20 12:15:00,36.7,22.5,30.34,NE,47,3.0,4.0,56,0.00,,,0.00,WeatherCatV1.02B3,2013-02-20 18:15:00,
2013-02-20 12:20:00,36.6,22.4,30.35,ENE,77,1.0,3.0,56,0.00,,,0.00,WeatherCatV1.02B3,2013-02-20 18:20:00,
2013-02-20 12:25:00,36.6,22.4,30.35,East,92,0.0,2.0,56,0.00,,,0.00,WeatherCatV1.02B3,2013-02-20 18:25:00,
2013-02-20 12:30:00,36.7,22.9,30.33,East,92,1.0,2.0,57,0.00,,,0.00,WeatherCatV1.02B3,2013-02-20 18:30:00,
2013-02-20 12:35:00,36.7,22.5,30.33,ENE,67,0.0,1.0,56,0.00,,,0.00,WeatherCatV1.02B3,2013-02-20 18:35:00,
2013-02-20 12:40:00,36.8,23.4,30.33,North,11,5.0,6.0,58,0.00,,,0.00,WeatherCatV1.02B3,2013-02-20 18:40:00,
2013-02-20 12:45:00,36.8,23.4,30.33,NE,35,3.0,4.0,58,0.00,,,0.00,WeatherCatV1.02B3,2013-02-20 18:45:00,
2013-02-20 12:50:00,36.8,23.0,30.32,NE,53,5.0,7.0,57,0.00,,,0.00,WeatherCatV1.02B3,2013-02-20 18:50:00,
2013-02-20 12:55:00,36.7,23.3,30.31,NE,45,3.0,3.0,58,0.00,,,0.00,WeatherCatV1.02B3,2013-02-20 18:55:00,
2013-02-20 13:00:00,36.7,24.1,30.30,NNE,28,4.0,6.0,60,0.00,,,0.00,WeatherCatV1.02B3,2013-02-20 19:00:00,
2013-02-20 13:05:00,36.8,23.8,30.31,North,5,7.0,7.0,59,0.00,,,0.00,WeatherCatV1.02B3,2013-02-20 19:05:00,
2013-02-20 13:10:00,36.6,23.6,30.29,NE,52,4.0,9.0,59,0.00,,,0.00,WeatherCatV1.02B3,2013-02-20 19:10:00,
2013-02-20 13:15:00,36.6,22.8,30.28,NNE,27,7.0,7.0,57,0.00,,,0.00,WeatherCatV1.02B3,2013-02-20 19:15:00,
2013-02-20 13:20:00,36.8,23.8,30.26,NNE,26,9.0,10.0,59,0.00,,,0.00,WeatherCatV1.02B3,2013-02-20 19:20:00,
2013-02-20 13:25:00,36.9,24.7,30.26,NNE,15,8.0,11.0,61,0.00,,,0.00,WeatherCatV1.02B3,2013-02-20 19:25:00,
2013-02-20 13:30:00,37.1,23.7,30.25,NNE,27,10.0,15.0,58,0.00,,,0.00,WeatherCatV1.02B3,2013-02-20 19:30:00,
2013-02-20 13:35:00,37.0,24.8,30.25,NE,36,8.0,15.0,61,0.00,,,0.00,WeatherCatV1.02B3,2013-02-20 19:35:00,
2013-02-20 13:40:00,37.1,24.5,30.24,NE,36,12.0,15.0,60,0.00,,,0.00,WeatherCatV1.02B3,2013-02-20 19:40:00,
2013-02-20 13:45:00,37.2,24.2,30.23,NE,37,15.0,18.0,59,0.00,,,0.00,WeatherCatV1.02B3,2013-02-20 19:45:00,
2013-02-20 13:50:00,37.2,25.0,30.23,NE,44,12.0,14.0,61,0.00,,,0.00,WeatherCatV1.02B3,2013-02-20 19:50:00,
2013-02-20 13:55:00,37.5,25.3,30.23,NE,40,11.0,15.0,61,0.00,,,0.00,WeatherCatV1.02B3,2013-02-20 19:55:00,
2013-02-20 14:00:00,37.6,25.4,30.23,NE,56,14.0,16.0,61,0.00,,,0.00,WeatherCatV1.02B3,2013-02-20 20:00:00,
2013-02-20 14:05:00,37.7,25.1,30.24,NE,42,10.0,17.0,60,0.00,,,0.00,WeatherCatV1.02B3,2013-02-20 20:05:00,
2013-02-20 14:10:00,37.8,25.6,30.25,North,5,13.0,16.0,61,0.00,,,0.00,WeatherCatV1.02B3,2013-02-20 20:10:00,
2013-02-20 14:15:00,37.9,24.5,30.25,NNE,20,9.0,13.0,58,0.00,,,0.00,WeatherCatV1.02B3,2013-02-20 20:15:00,
2013-02-20 14:20:00,37.9,24.5,30.25,NNE,26,10.0,12.0,58,0.00,,,0.00,WeatherCatV1.02B3,2013-02-20 20:20:00,
2013-02-20 14:25:00,38.0,25.4,30.26,NNE,12,11.0,15.0,60,0.00,,,0.00,WeatherCatV1.02B3,2013-02-20 20:25:00,
2013-02-20 14:30:00,38.2,25.6,30.26,North,11,12.0,12.0,60,0.00,,,0.00,WeatherCatV1.02B3,2013-02-20 20:30:00,
2013-02-20 14:35:00,38.1,25.1,30.25,NNE,17,11.0,12.0,59,0.00,,,0.00,WeatherCatV1.02B3,2013-02-20 20:35:00,
2013-02-20 14:40:00,38.2,24.7,30.26,NNE,16,8.0,11.0,58,0.00,,,0.00,WeatherCatV1.02B3,2013-02-20 20:40:00,
2013-02-20 14:45:00,38.3,25.2,30.26,NNE,13,9.0,9.0,59,0.00,,,0.00,WeatherCatV1.02B3,2013-02-20 20:45:00,
2013-02-20 14:50:00,38.2,24.7,30.26,NNE,19,11.0,12.0,58,0.00,,,0.00,WeatherCatV1.02B3,2013-02-20 20:50:00,
2013-02-20 14:55:00,38.2,24.7,30.25,NNE,18,8.0,12.0,58,0.00,,,0.00,WeatherCatV1.02B3,2013-02-20 20:55:00,
2013-02-20 15:00:00,38.1,25.1,30.26,NNE,32,3.0,9.0,59,0.00,,,0.00,WeatherCatV1.02B3,2013-02-20 21:00:00,
2013-02-20 15:05:00,38.2,25.6,30.25,NNE,30,5.0,6.0,60,0.00,,,0.00,WeatherCatV1.02B3,2013-02-20 21:05:00,
2013-02-20 15:10:00,38.0,25.0,30.25,NE,52,5.0,8.0,59,0.00,,,0.00,WeatherCatV1.02B3,2013-02-20 21:10:00,
2013-02-20 15:15:00,38.0,24.1,30.25,ENE,75,4.0,10.0,57,0.00,,,0.00,WeatherCatV1.02B3,2013-02-20 21:15:00,
2013-02-20 15:20:00,38.0,24.6,30.24,NE,48,7.0,8.0,58,0.00,,,0.00,WeatherCatV1.02B3,2013-02-20 21:20:00,
2013-02-20 15:25:00,37.9,24.5,30.23,NE,48,9.0,12.0,58,0.00,,,0.00,WeatherCatV1.02B3,2013-02-20 21:25:00,
2013-02-20 15:30:00,37.8,24.8,30.24,NE,38,3.0,6.0,59,0.00,,,0.00,WeatherCatV1.02B3,2013-02-20 21:30:00,
2013-02-20 15:35:00,37.9,25.7,30.25,NE,35,5.0,8.0,61,0.00,,,0.00,WeatherCatV1.02B3,2013-02-20 21:35:00,
2013-02-20 15:40:00,38.0,25.8,30.25,NE,46,7.0,8.0,61,0.00,,,0.00,WeatherCatV1.02B3,2013-02-20 21:40:00,
2013-02-20 15:45:00,38.1,25.5,30.25,NE,40,6.0,7.0,60,0.00,,,0.00,WeatherCatV1.02B3,2013-02-20 21:45:00,
2013-02-20 15:50:00,38.0,24.6,30.25,NE,44,7.0,9.0,58,0.00,,,0.00,WeatherCatV1.02B3,2013-02-20 21:50:00,
2013-02-20 15:55:00,38.0,25.0,30.24,NE,41,5.0,7.0,59,0.00,,,0.00,WeatherCatV1.02B3,2013-02-20 21:55:00,
2013-02-20 16:00:00,38.0,25.8,30.23,NE,53,5.0,7.0,61,0.00,,,0.00,WeatherCatV1.02B3,2013-02-20 22:00:00,
2013-02-20 16:05:00,38.1,24.6,30.22,NE,50,7.0,10.0,58,0.00,,,0.00,WeatherCatV1.02B3,2013-02-20 22:05:00,
2013-02-20 16:10:00,38.1,25.5,30.23,NE,38,2.0,8.0,60,0.00,,,0.00,WeatherCatV1.02B3,2013-02-20 22:10:00,
2013-02-20 16:15:00,38.1,25.5,30.24,ENE,69,5.0,7.0,60,0.00,,,0.00,WeatherCatV1.02B3,2013-02-20 22:15:00,
2013-02-20 16:20:00,38.1,25.1,30.23,NE,53,5.0,8.0,59,0.00,,,0.00,WeatherCatV1.02B3,2013-02-20 22:20:00,
2013-02-20 16:25:00,38.0,25.4,30.23,ENE,75,4.0,8.0,60,0.00,,,0.00,WeatherCatV1.02B3,2013-02-20 22:25:00,
2013-02-20 16:30:00,38.1,26.2,30.22,NE,49,4.0,8.0,62,0.00,,,0.00,WeatherCatV1.02B3,2013-02-20 22:30:00,
2013-02-20 16:35:00,38.1,25.5,30.23,NE,46,4.0,7.0,60,0.00,,,0.00,WeatherCatV1.02B3,2013-02-20 22:35:00,
2013-02-20 16:40:00,38.1,25.1,30.22,NE,42,6.0,9.0,59,0.00,,,0.00,WeatherCatV1.02B3,2013-02-20 22:40:00,
2013-02-20 16:45:00,38.1,25.1,30.22,NE,51,4.0,7.0,59,0.00,,,0.00,WeatherCatV1.02B3,2013-02-20 22:45:00,
2013-02-20 16:50:00,38.1,25.5,30.21,ENE,57,5.0,9.0,60,0.00,,,0.00,WeatherCatV1.02B3,2013-02-20 22:50:00,
2013-02-20 16:55:00,38.2,25.2,30.21,ENE,65,4.0,8.0,59,0.00,,,0.00,WeatherCatV1.02B3,2013-02-20 22:55:00,
2013-02-20 17:00:00,38.2,25.6,30.21,NE,37,4.0,6.0,60,0.00,,,0.00,WeatherCatV1.02B3,2013-02-20 23:00:00,
2013-02-20 17:05:00,38.3,26.0,30.21,NE,39,6.0,6.0,61,0.00,,,0.00,WeatherCatV1.02B3,2013-02-20 23:05:00,
2013-02-20 17:10:00,38.3,26.0,30.22,NNE,32,3.0,7.0,61,0.00,,,0.00,WeatherCatV1.02B3,2013-02-20 23:10:00,
2013-02-20 17:15:00,38.3,26.8,30.22,NNE,32,5.0,5.0,63,0.00,,,0.00,WeatherCatV1.02B3,2013-02-20 23:15:00,
2013-02-20 17:20:00,38.3,27.2,30.21,NE,44,4.0,7.0,64,0.00,,,0.00,WeatherCatV1.02B3,2013-02-20 23:20:00,
2013-02-20 17:25:00,38.3,27.2,30.21,NNE,31,6.0,6.0,64,0.00,,,0.00,WeatherCatV1.02B3,2013-02-20 23:25:00,
2013-02-20 17:30:00,38.4,27.3,30.22,NNE,30,5.0,6.0,64,0.00,,,0.00,WeatherCatV1.02B3,2013-02-20 23:30:00,
2013-02-20 17:35:00,38.3,27.6,30.23,North,355,6.0,6.0,65,0.00,,,0.00,WeatherCatV1.02B3,2013-02-20 23:35:00,
2013-02-20 17:40:00,38.3,27.2,30.23,NNE,22,6.0,8.0,64,0.00,,,0.00,WeatherCatV1.02B3,2013-02-20 23:40:00,
2013-02-20 17:45:00,38.3,28.0,30.22,NNE,25,6.0,9.0,66,0.00,,,0.00,WeatherCatV1.02B3,2013-02-20 23:45:00,
2013-02-20 17:50:00,38.3,26.8,30.23,North,5,5.0,7.0,63,0.00,,,0.00,WeatherCatV1.02B3,2013-02-20 23:50:00,
2013-02-20 17:55:00,38.2,27.1,30.23,NE,35,7.0,8.0,64,0.00,,,0.00,WeatherCatV1.02B3,2013-02-20 23:55:00,
2013-02-20 18:00:00,38.2,27.5,30.22,NE,40,5.0,9.0,65,0.00,,,0.00,WeatherCatV1.02B3,2013-02-21 00:00:00,
2013-02-20 18:05:00,38.2,27.1,30.22,NE,36,7.0,7.0,64,0.00,,,0.00,WeatherCatV1.02B3,2013-02-21 00:05:00,
2013-02-20 18:10:00,38.1,27.4,30.23,NNE,30,5.0,7.0,65,0.00,,,0.00,WeatherCatV1.02B3,2013-02-21 00:10:00,
2013-02-20 18:15:00,38.1,27.0,30.22,NNE,32,5.0,7.0,64,0.00,,,0.00,WeatherCatV1.02B3,2013-02-21 00:15:00,
2013-02-20 18:20:00,38.0,26.9,30.23,NNE,23,8.0,10.0,64,0.00,,,0.00,WeatherCatV1.02B3,2013-02-21 00:20:00,
2013-02-20 18:25:00,38.0,27.3,30.23,NE,34,6.0,7.0,65,0.00,,,0.00,WeatherCatV1.02B3,2013-02-21 00:25:00,
2013-02-20 18:30:00,38.0,27.7,30.23,NNE,26,7.0,8.0,66,0.00,,,0.00,WeatherCatV1.02B3,2013-02-21 00:30:00,
2013-02-20 18:35:00,37.9,27.6,30.24,North,5,6.0,7.0,66,0.00,,,0.00,WeatherCatV1.02B3,2013-02-21 00:35:00,
2013-02-20 18:40:00,37.8,27.8,30.24,North,349,7.0,8.0,67,0.00,,,0.00,WeatherCatV1.02B3,2013-02-21 00:40:00,
2013-02-20 18:45:00,37.6,26.9,30.24,North,5,6.0,12.0,65,0.00,,,0.00,WeatherCatV1.02B3,2013-02-21 00:45:00,
2013-02-20 18:50:00,37.5,26.8,30.24,NE,36,8.0,9.0,65,0.00,,,0.00,WeatherCatV1.02B3,2013-02-21 00:50:00,
2013-02-20 18:55:00,37.5,27.2,30.24,NNE,22,6.0,9.0,66,0.00,,,0.00,WeatherCatV1.02B3,2013-02-21 00:55:00,
2013-02-20 19:00:00,37.4,27.5,30.24,NNE,25,5.0,7.0,67,0.00,,,0.00,WeatherCatV1.02B3,2013-02-21 01:00:00,
2013-02-20 19:05:00,37.4,26.7,30.23,NE,46,4.0,9.0,65,0.00,,,0.00,WeatherCatV1.02B3,2013-02-21 01:05:00,
2013-02-20 19:10:00,37.4,27.1,30.22,NNE,26,7.0,12.0,66,0.00,,,0.00,WeatherCatV1.02B3,2013-02-21 01:10:00,
2013-02-20 19:15:00,37.3,26.6,30.22,NE,49,8.0,11.0,65,0.00,,,0.00,WeatherCatV1.02B3,2013-02-21 01:15:00,
2013-02-20 19:20:00,37.3,27.0,30.21,NNE,32,7.0,9.0,66,0.00,,,0.00,WeatherCatV1.02B3,2013-02-21 01:20:00,
2013-02-20 19:25:00,37.2,26.9,30.22,NE,40,8.0,8.0,66,0.00,,,0.00,WeatherCatV1.02B3,2013-02-21 01:25:00,
2013-02-20 19:30:00,37.2,26.9,30.22,NE,36,5.0,11.0,66,0.00,,,0.00,WeatherCatV1.02B3,2013-02-21 01:30:00,
2013-02-20 19:35:00,37.3,27.4,30.21,NE,49,9.0,12.0,67,0.00,,,0.00,WeatherCatV1.02B3,2013-02-21 01:35:00,
2013-02-20 19:40:00,37.3,27.7,30.21,NNE,30,7.0,11.0,68,0.00,,,0.00,WeatherCatV1.02B3,2013-02-21 01:40:00,
2013-02-20 19:45:00,37.3,28.1,30.22,NNE,33,5.0,6.0,69,0.00,,,0.00,WeatherCatV1.02B3,2013-02-21 01:45:00,
2013-02-20 19:50:00,37.3,28.1,30.21,NNE,24,9.0,10.0,69,0.00,,,0.00,WeatherCatV1.02B3,2013-02-21 01:50:00,
2013-02-20 19:55:00,37.3,27.7,30.20,ENE,72,9.0,10.0,68,0.00,,,0.00,WeatherCatV1.02B3,2013-02-21 01:55:00,
2013-02-20 20:00:00,37.3,27.4,30.20,NE,39,5.0,8.0,67,0.00,,,0.00,WeatherCatV1.02B3,2013-02-21 02:00:00,
2013-02-20 20:05:00,37.3,27.0,30.20,NE,55,3.0,9.0,66,0.00,,,0.00,WeatherCatV1.02B3,2013-02-21 02:05:00,
2013-02-20 20:10:00,37.3,27.0,30.20,NE,46,5.0,7.0,66,0.00,,,0.00,WeatherCatV1.02B3,2013-02-21 02:10:00,
2013-02-20 20:15:00,37.3,27.0,30.20,East,79,3.0,7.0,66,0.00,,,0.00,WeatherCatV1.02B3,2013-02-21 02:15:00,
2013-02-20 20:20:00,37.3,27.0,30.20,ENE,61,8.0,9.0,66,0.00,,,0.00,WeatherCatV1.02B3,2013-02-21 02:20:00,
2013-02-20 20:25:00,37.3,27.0,30.20,ENE,76,5.0,9.0,66,0.00,,,0.00,WeatherCatV1.02B3,2013-02-21 02:25:00,
2013-02-20 20:30:00,37.4,27.1,30.21,NE,51,3.0,7.0,66,0.00,,,0.00,WeatherCatV1.02B3,2013-02-21 02:30:00,
2013-02-20 20:35:00,37.4,26.7,30.21,NE,48,4.0,9.0,65,0.00,,,0.00,WeatherCatV1.02B3,2013-02-21 02:35:00,
2013-02-20 20:40:00,37.5,27.6,30.21,NE,45,3.0,4.0,67,0.00,,,0.00,WeatherCatV1.02B3,2013-02-21 02:40:00,
2013-02-20 20:45:00,37.4,26.7,30.20,NE,45,5.0,10.0,65,0.00,,,0.00,WeatherCatV1.02B3,2013-02-21 02:45:00,
2013-02-20 20:50:00,37.5,27.6,30.20,ENE,61,5.0,9.0,67,0.00,,,0.00,WeatherCatV1.02B3,2013-02-21 02:50:00,
2013-02-20 20:55:00,37.5,27.6,30.21,NE,45,3.0,8.0,67,0.00,,,0.00,WeatherCatV1.02B3,2013-02-21 02:55:00,
2013-02-20 21:00:00,37.5,27.6,30.21,NNE,22,6.0,8.0,67,0.00,,,0.00,WeatherCatV1.02B3,2013-02-21 03:00:00,
2013-02-20 21:05:00,37.5,27.9,30.20,ENE,61,5.0,7.0,68,0.00,,,0.00,WeatherCatV1.02B3,2013-02-21 03:05:00,
2013-02-20 21:10:00,37.5,27.9,30.20,NE,44,8.0,9.0,68,0.00,,,0.00,WeatherCatV1.02B3,2013-02-21 03:10:00,
2013-02-20 21:15:00,37.4,28.2,30.20,NE,36,6.0,6.0,69,0.00,,,0.00,WeatherCatV1.02B3,2013-02-21 03:15:00,
2013-02-20 21:20:00,37.4,27.8,30.20,NE,46,5.0,8.0,68,0.00,,,0.00,WeatherCatV1.02B3,2013-02-21 03:20:00,
2013-02-20 21:25:00,37.4,27.8,30.20,NE,43,6.0,9.0,68,0.00,,,0.00,WeatherCatV1.02B3,2013-02-21 03:25:00,
2013-02-20 21:30:00,37.4,27.8,30.20,NE,35,8.0,9.0,68,0.00,,,0.00,WeatherCatV1.02B3,2013-02-21 03:30:00,
2013-02-20 21:35:00,37.4,28.2,30.20,NE,41,8.0,8.0,69,0.00,,,0.00,WeatherCatV1.02B3,2013-02-21 03:35:00,
2013-02-20 21:40:00,37.4,28.5,30.19,NE,47,7.0,11.0,70,0.00,,,0.00,WeatherCatV1.02B3,2013-02-21 03:40:00,
2013-02-20 21:45:00,37.4,28.5,30.20,NNE,30,6.0,7.0,70,0.00,,,0.00,WeatherCatV1.02B3,2013-02-21 03:45:00,
2013-02-20 21:50:00,37.4,28.5,30.20,NE,48,4.0,6.0,70,0.00,,,0.00,WeatherCatV1.02B3,2013-02-21 03:50:00,
2013-02-20 21:55:00,37.4,28.5,30.20,NE,49,3.0,8.0,70,0.00,,,0.00,WeatherCatV1.02B3,2013-02-21 03:55:00,
2013-02-20 22:00:00,37.5,29.0,30.20,NE,38,6.0,7.0,71,0.00,,,0.00,WeatherCatV1.02B3,2013-02-21 04:00:00,
2013-02-20 22:05:00,37.4,28.5,30.20,NE,34,6.0,8.0,70,0.00,,,0.00,WeatherCatV1.02B3,2013-02-21 04:05:00,
2013-02-20 22:10:00,37.4,28.2,30.20,NE,53,6.0,8.0,69,0.00,,,0.00,WeatherCatV1.02B3,2013-02-21 04:10:00,
2013-02-20 22:15:00,37.5,27.9,30.20,NE,39,6.0,8.0,68,0.00,,,0.00,WeatherCatV1.02B3,2013-02-21 04:15:00,
2013-02-20 22:20:00,37.5,28.6,30.19,NE,44,4.0,9.0,70,0.00,,,0.00,WeatherCatV1.02B3,2013-02-21 04:20:00,
2013-02-20 22:25:00,37.5,28.3,30.19,NE,36,8.0,9.0,69,0.00,,,0.00,WeatherCatV1.02B3,2013-02-21 04:25:00,
2013-02-20 22:30:00,37.5,28.3,30.19,NE,54,6.0,8.0,69,0.00,,,0.00,WeatherCatV1.02B3,2013-02-21 04:30:00,
2013-02-20 22:35:00,37.5,28.3,30.17,NE,49,9.0,11.0,69,0.00,,,0.00,WeatherCatV1.02B3,2013-02-21 04:35:00,
2013-02-20 22:40:00,37.5,28.3,30.17,NE,47,8.0,11.0,69,0.00,,,0.00,WeatherCatV1.02B3,2013-02-21 04:40:00,
2013-02-20 22:45:00,37.5,28.3,30.18,ENE,66,8.0,9.0,69,0.00,,,0.00,WeatherCatV1.02B3,2013-02-21 04:45:00,
2013-02-20 22:50:00,37.5,28.3,30.18,NE,49,5.0,10.0,69,0.00,,,0.00,WeatherCatV1.02B3,2013-02-21 04:50:00,
2013-02-20 22:55:00,37.5,27.9,30.18,NE,49,6.0,11.0,68,0.00,,,0.00,WeatherCatV1.02B3,2013-02-21 04:55:00,
2013-02-20 23:00:00,37.5,27.9,30.18,NE,36,5.0,10.0,68,0.00,,,0.00,WeatherCatV1.02B3,2013-02-21 05:00:00,
2013-02-20 23:05:00,37.5,27.9,30.17,NE,42,8.0,12.0,68,0.00,,,0.00,WeatherCatV1.02B3,2013-02-21 05:05:00,
2013-02-20 23:10:00,37.6,28.0,30.17,ENE,61,10.0,11.0,68,0.00,,,0.00,WeatherCatV1.02B3,2013-02-21 05:10:00,
2013-02-20 23:15:00,37.6,28.0,30.17,ENE,64,9.0,13.0,68,0.00,,,0.00,WeatherCatV1.02B3,2013-02-21 05:15:00,
2013-02-20 23:20:00,37.6,27.6,30.17,NE,53,5.0,11.0,67,0.00,,,0.00,WeatherCatV1.02B3,2013-02-21 05:20:00,
2013-02-20 23:25:00,37.6,27.6,30.17,ENE,74,5.0,12.0,67,0.00,,,0.00,WeatherCatV1.02B3,2013-02-21 05:25:00,
2013-02-20 23:30:00,37.7,27.4,30.17,NE,49,9.0,10.0,66,0.00,,,0.00,WeatherCatV1.02B3,2013-02-21 05:30:00,
2013-02-20 23:35:00,37.7,27.7,30.17,NE,48,6.0,10.0,67,0.00,,,0.00,WeatherCatV1.02B3,2013-02-21 05:35:00,
2013-02-20 23:40:00,37.7,27.4,30.17,NE,48,6.0,12.0,66,0.00,,,0.00,WeatherCatV1.02B3,2013-02-21 05:40:00,
2013-02-20 23:45:00,37.7,27.4,30.17,NE,51,6.0,12.0,66,0.00,,,0.00,WeatherCatV1.02B3,2013-02-21 05:45:00,
2013-02-20 23:50:00,37.7,27.4,30.17,NE,49,8.0,8.0,66,0.00,,,0.00,WeatherCatV1.02B3,2013-02-21 05:50:00,
2013-02-20 23:53:00,37.8,28.2,30.17,NE,51,8.0,8.0,68,0.00,,,0.00,WeatherCatV1.02B3,2013-02-21 05:53:00,
2013-02-20 23:57:00,37.8,27.8,30.17,NE,44,5.0,10.0,67,0.00,,,0.00,WeatherCatV1.02B3,2013-02-21 05:57:00,